createdAt,value
2018-11-10T00:00:36.854Z,100402.47
2018-11-10T00:03:07.017Z,100396.81
2018-11-10T00:05:35.968Z,100403.00
2018-11-10T00:08:04.971Z,100401.77
2018-11-10T00:10:33.947Z,100399.25
2018-11-10T00:13:02.880Z,100397.80
2018-11-10T00:15:31.867Z,100398.16
2018-11-10T00:18:00.801Z,100391.88
2018-11-10T00:20:29.751Z,100398.42
2018-11-10T00:22:58.686Z,100391.05
2018-11-10T00:25:27.702Z,100391.77
2018-11-10T00:27:56.622Z,100388.75
2018-11-10T00:30:25.584Z,100384.48
2018-11-10T00:32:54.549Z,100387.78
2018-11-10T00:35:23.570Z,100382.34
2018-11-10T00:37:52.534Z,100379.17
2018-11-10T00:40:21.475Z,100381.02
2018-11-10T00:42:50.438Z,100383.52
2018-11-10T00:45:19.566Z,100377.62
2018-11-10T00:47:48.558Z,100378.20
2018-11-10T00:50:17.515Z,100379.44
2018-11-10T00:52:46.475Z,100375.93
2018-11-10T00:55:15.438Z,100381.00
2018-11-10T00:57:44.391Z,100375.45
2018-11-10T01:00:13.909Z,100375.08
2018-11-10T01:02:44.050Z,100377.86
2018-11-10T01:05:13.003Z,100375.59
2018-11-10T01:07:42.154Z,100374.59
2018-11-10T01:10:12.541Z,100378.73
2018-11-10T01:12:41.685Z,100374.98
2018-11-10T01:15:14.829Z,100370.02
2018-11-10T01:17:44.389Z,100367.25
2018-11-10T01:20:13.867Z,100362.66
2018-11-10T01:22:42.848Z,100358.79
2018-11-10T01:25:12.248Z,100358.31
2018-11-10T01:27:41.225Z,100358.91
2018-11-10T01:30:12.703Z,100357.46
2018-11-10T01:32:41.786Z,100353.35
2018-11-10T01:35:10.731Z,100349.36
2018-11-10T01:37:39.699Z,100352.39
2018-11-10T01:40:10.570Z,100341.11
2018-11-10T01:42:39.531Z,100344.27
2018-11-10T01:45:10.738Z,100336.64
2018-11-10T01:47:39.860Z,100332.31
2018-11-10T01:50:09.633Z,100332.43
2018-11-10T01:52:38.577Z,100335.11
2018-11-10T01:55:08.150Z,100331.23
2018-11-10T01:57:37.085Z,100337.30
2018-11-10T02:00:10.560Z,100331.36
2018-11-10T02:02:39.527Z,100336.09
2018-11-10T02:05:08.510Z,100343.34
2018-11-10T02:07:37.519Z,100340.44
2018-11-10T02:10:07.934Z,100340.55
2018-11-10T02:12:36.911Z,100345.51
2018-11-10T02:15:06.728Z,100342.15
2018-11-10T02:17:35.687Z,100343.81
2018-11-10T02:20:05.014Z,100347.58
2018-11-10T02:22:34.058Z,100345.77
2018-11-10T02:25:03.093Z,100349.39
2018-11-10T02:27:32.044Z,100349.86
2018-11-10T02:30:00.999Z,100347.68
2018-11-10T02:32:29.925Z,100346.34
2018-11-10T02:34:58.945Z,100340.07
2018-11-10T02:37:27.898Z,100341.18
2018-11-10T02:39:56.858Z,100335.02
2018-11-10T02:42:25.812Z,100334.28
2018-11-10T02:44:54.751Z,100339.10
2018-11-10T02:47:23.734Z,100327.41
2018-11-10T02:49:52.687Z,100327.02
2018-11-10T02:52:21.674Z,100329.19
2018-11-10T02:54:50.604Z,100324.61
2018-11-10T02:57:19.527Z,100321.73
2018-11-10T02:59:48.471Z,100324.16
2018-11-10T03:02:17.414Z,100323.16
2018-11-10T03:04:46.398Z,100328.62
2018-11-10T03:07:15.505Z,100326.18
2018-11-10T03:09:44.494Z,100319.06
2018-11-10T03:12:13.445Z,100316.88
2018-11-10T03:14:42.465Z,100324.16
2018-11-10T03:17:11.410Z,100322.45
2018-11-10T03:19:40.658Z,100320.03
2018-11-10T03:22:09.599Z,100321.48
2018-11-10T03:24:38.614Z,100317.25
2018-11-10T03:27:07.547Z,100323.41
2018-11-10T03:29:36.470Z,100324.14
2018-11-10T03:32:05.538Z,100322.67
2018-11-10T03:34:34.493Z,100324.23
2018-11-10T03:37:03.487Z,100322.91
2018-11-10T03:39:32.490Z,100319.28
2018-11-10T03:42:01.436Z,100319.43
2018-11-10T03:44:30.394Z,100327.60
2018-11-10T03:46:59.344Z,100325.94
2018-11-10T03:49:28.340Z,100329.30
2018-11-10T03:51:57.264Z,100328.45
2018-11-10T03:54:26.226Z,100332.07
2018-11-10T03:56:55.166Z,100327.49
2018-11-10T03:59:24.101Z,100335.83
2018-11-10T04:01:53.068Z,100336.28
2018-11-10T04:04:22.015Z,100339.93
2018-11-10T04:06:51.052Z,100341.85
2018-11-10T04:09:20.003Z,100341.97
2018-11-10T04:11:48.935Z,100343.31
2018-11-10T04:14:17.901Z,100339.79
2018-11-10T04:16:46.900Z,100343.03
2018-11-10T04:19:15.904Z,100343.62
2018-11-10T04:21:44.884Z,100343.88
2018-11-10T04:24:13.874Z,100343.88
2018-11-10T04:26:42.819Z,100342.92
2018-11-10T04:29:11.868Z,100345.58
2018-11-10T04:31:40.785Z,100350.64
2018-11-10T04:34:09.723Z,100342.92
2018-11-10T04:36:38.700Z,100341.71
2018-11-10T04:39:08.557Z,100353.18
2018-11-10T04:41:37.618Z,100353.88
2018-11-10T04:44:06.642Z,100354.03
2018-11-10T04:46:35.583Z,100356.31
2018-11-10T04:49:04.507Z,100366.20
2018-11-10T04:51:33.464Z,100369.70
2018-11-10T04:54:02.414Z,100369.70
2018-11-10T04:56:31.353Z,100379.73
2018-11-10T04:59:00.322Z,100377.67
2018-11-10T05:01:29.367Z,100385.52
2018-11-10T05:03:58.287Z,100380.21
2018-11-10T05:06:27.206Z,100377.19
2018-11-10T05:08:56.226Z,100376.70
2018-11-10T05:11:25.155Z,100380.17
2018-11-10T05:13:54.078Z,100382.02
2018-11-10T05:16:23.059Z,100383.83
2018-11-10T05:18:51.999Z,100390.98
2018-11-10T05:21:21.006Z,100380.84
2018-11-10T05:23:49.943Z,100381.47
2018-11-10T05:26:18.919Z,100389.94
2018-11-10T05:28:47.837Z,100390.19
2018-11-10T05:31:16.861Z,100390.81
2018-11-10T05:33:45.775Z,100392.86
2018-11-10T05:36:14.707Z,100390.95
2018-11-10T05:38:43.755Z,100393.39
2018-11-10T05:41:12.718Z,100390.70
2018-11-10T05:43:41.675Z,100396.84
2018-11-10T05:46:10.614Z,100395.39
2018-11-10T05:48:39.625Z,100394.00
2018-11-10T05:51:08.591Z,100400.39
2018-11-10T05:53:37.553Z,100402.30
2018-11-10T05:56:07.796Z,100412.64
2018-11-10T05:58:36.909Z,100403.64
2018-11-10T06:01:06.641Z,100405.38
2018-11-10T06:03:35.575Z,100401.67
2018-11-10T06:06:04.556Z,100399.64
2018-11-10T06:08:33.499Z,100405.50
2018-11-10T06:11:02.482Z,100417.63
2018-11-10T06:13:32.449Z,100418.66
2018-11-10T06:16:01.436Z,100420.52
2018-11-10T06:18:30.409Z,100424.01
2018-11-10T06:20:59.371Z,100422.92
2018-11-10T06:23:28.359Z,100418.33
2018-11-10T06:25:57.366Z,100420.87
2018-11-10T06:28:26.347Z,100420.12
2018-11-10T06:30:55.294Z,100419.89
2018-11-10T06:33:24.228Z,100421.68
2018-11-10T06:35:53.194Z,100422.09
2018-11-10T06:38:22.479Z,100427.53
2018-11-10T06:40:51.425Z,100425.50
2018-11-10T06:43:20.363Z,100426.58
2018-11-10T06:45:49.334Z,100424.77
2018-11-10T06:48:18.289Z,100420.12
2018-11-10T06:50:47.266Z,100417.77
2018-11-10T06:53:16.194Z,100422.67
2018-11-10T06:55:45.155Z,100422.17
2018-11-10T06:58:14.099Z,100426.19
2018-11-10T07:00:43.022Z,100416.95
2018-11-10T07:03:12.025Z,100410.13
2018-11-10T07:05:40.949Z,100410.48
2018-11-10T07:08:09.979Z,100409.06
2018-11-10T07:10:38.933Z,100417.91
2018-11-10T07:13:07.884Z,100413.51
2018-11-10T07:15:36.862Z,100412.56
2018-11-10T07:18:06.201Z,100408.27
2018-11-10T07:20:35.164Z,100414.44
2018-11-10T07:23:04.122Z,100408.50
2018-11-10T07:25:33.064Z,100408.86
2018-11-10T07:28:01.979Z,100413.34
2018-11-10T07:30:30.968Z,100410.64
2018-11-10T07:32:59.899Z,100415.52
2018-11-10T07:35:28.836Z,100416.69
2018-11-10T07:37:57.856Z,100413.94
2018-11-10T07:40:26.778Z,100411.80
2018-11-10T07:42:55.745Z,100409.25
2018-11-10T07:45:24.657Z,100406.73
2018-11-10T07:47:53.681Z,100407.50
2018-11-10T07:50:22.602Z,100407.45
2018-11-10T07:52:51.732Z,100406.01
2018-11-10T07:55:20.696Z,100397.66
2018-11-10T07:57:49.638Z,100399.89
2018-11-10T08:00:19.260Z,100398.58
2018-11-10T08:02:48.192Z,100393.55
2018-11-10T08:05:17.535Z,100393.57
2018-11-10T08:07:46.550Z,100387.02
2018-11-10T08:10:16.035Z,100381.66
2018-11-10T08:12:44.990Z,100382.80
2018-11-10T08:15:15.071Z,100381.28
2018-11-10T08:17:44.029Z,100375.91
2018-11-10T08:20:13.583Z,100374.49
2018-11-10T08:22:42.558Z,100374.80
2018-11-10T08:25:13.222Z,100370.90
2018-11-10T08:27:42.215Z,100376.42
2018-11-10T08:30:12.754Z,100371.36
2018-11-10T08:32:42.307Z,100372.13
2018-11-10T08:35:12.211Z,100377.13
2018-11-10T08:37:41.119Z,100367.84
2018-11-10T08:40:13.014Z,100364.98
2018-11-10T08:42:41.941Z,100364.92
2018-11-10T08:45:12.140Z,100362.48
2018-11-10T08:47:41.856Z,100366.48
2018-11-10T08:50:12.096Z,100362.81
2018-11-10T08:52:41.562Z,100364.38
2018-11-10T08:55:11.402Z,100357.36
2018-11-10T08:57:40.870Z,100353.34
2018-11-10T09:00:10.669Z,100361.04
2018-11-10T09:02:39.679Z,100358.38
2018-11-10T09:05:09.716Z,100349.91
2018-11-10T09:07:38.712Z,100344.50
2018-11-10T09:10:09.151Z,100345.64
2018-11-10T09:12:38.163Z,100346.20
2018-11-10T09:15:08.976Z,100340.64
2018-11-10T09:17:37.997Z,100331.14
2018-11-10T09:20:09.176Z,100335.53
2018-11-10T09:22:38.127Z,100330.71
2018-11-10T09:25:09.261Z,100328.98
2018-11-10T09:27:38.266Z,100325.37
2018-11-10T09:30:08.026Z,100314.20
2018-11-10T09:32:37.046Z,100310.09
2018-11-10T09:35:06.595Z,100302.61
2018-11-10T09:37:35.530Z,100304.30
2018-11-10T09:40:04.619Z,100302.83
2018-11-10T09:43:36.311Z,100298.94
2018-11-10T09:46:05.386Z,100294.19
2018-11-10T09:48:34.378Z,100297.30
2018-11-10T09:51:03.421Z,100303.44
2018-11-10T09:53:32.360Z,100294.86
2018-11-10T09:56:01.306Z,100291.89
2018-11-10T09:58:30.274Z,100287.72
2018-11-10T10:00:59.316Z,100288.73
2018-11-10T10:03:28.244Z,100284.55
2018-11-10T10:05:57.195Z,100284.81
2018-11-10T10:08:26.197Z,100276.59
2018-11-10T10:10:55.135Z,100271.47
2018-11-10T10:13:24.110Z,100278.47
2018-11-10T10:15:53.106Z,100270.23
2018-11-10T10:18:22.057Z,100264.50
2018-11-10T10:20:51.038Z,100270.01
2018-11-10T10:23:20.013Z,100258.16
2018-11-10T10:25:49.016Z,100253.59
2018-11-10T10:28:18.027Z,100247.34
2018-11-10T10:30:46.996Z,100250.43
2018-11-10T10:33:15.978Z,100243.25
2018-11-10T10:35:44.919Z,100242.07
2018-11-10T10:38:13.921Z,100233.73
2018-11-10T10:40:42.927Z,100232.23
2018-11-10T10:43:11.940Z,100229.73
2018-11-10T10:45:40.883Z,100226.94
2018-11-10T10:48:09.860Z,100221.33
2018-11-10T10:50:38.845Z,100224.89
2018-11-10T10:53:07.809Z,100227.66
2018-11-10T10:55:36.798Z,100220.23
2018-11-10T10:58:06.211Z,100217.13
2018-11-10T11:00:40.258Z,100212.42
2018-11-10T11:03:14.174Z,100210.52
2018-11-10T11:05:44.734Z,100209.34
2018-11-10T11:08:13.671Z,100207.75
2018-11-10T11:10:42.675Z,100206.28
2018-11-10T11:13:11.635Z,100205.30
2018-11-10T11:15:40.715Z,100205.78
2018-11-10T11:18:09.656Z,100197.36
2018-11-10T11:20:38.596Z,100196.09
2018-11-10T11:23:07.561Z,100198.62
2018-11-10T11:25:36.527Z,100184.94
2018-11-10T11:28:05.514Z,100186.67
2018-11-10T11:30:34.487Z,100179.87
2018-11-10T11:33:03.493Z,100186.60
2018-11-10T11:35:32.484Z,100187.26
2018-11-10T11:38:01.514Z,100184.03
2018-11-10T11:40:30.483Z,100175.09
2018-11-10T11:42:59.425Z,100171.70
2018-11-10T11:45:28.406Z,100175.28
2018-11-10T11:47:57.348Z,100168.35
2018-11-10T11:50:26.398Z,100167.62
2018-11-10T11:52:55.358Z,100170.77
2018-11-10T11:55:24.391Z,100169.03
2018-11-10T11:57:53.576Z,100166.36
2018-11-10T12:00:22.443Z,100166.91
2018-11-10T12:02:51.443Z,100163.97
2018-11-10T12:05:20.435Z,100163.66
2018-11-10T12:07:49.436Z,100164.72
2018-11-10T12:10:18.567Z,100168.30
2018-11-10T12:12:47.556Z,100170.80
2018-11-10T12:15:17.313Z,100167.98
2018-11-10T12:17:46.268Z,100168.50
2018-11-10T12:20:16.109Z,100162.64
2018-11-10T12:22:45.293Z,100165.98
2018-11-10T12:25:14.827Z,100168.37
2018-11-10T12:27:44.508Z,100161.59
2018-11-10T12:30:13.572Z,100167.42
2018-11-10T12:32:42.547Z,100160.64
2018-11-10T12:35:13.059Z,100154.07
2018-11-10T12:37:42.312Z,100156.38
2018-11-10T12:40:12.683Z,100160.02
2018-11-10T12:42:41.781Z,100160.22
2018-11-10T12:45:11.853Z,100153.64
2018-11-10T12:47:41.216Z,100150.53
2018-11-10T12:50:11.887Z,100154.69
2018-11-10T12:52:41.797Z,100152.17
2018-11-10T12:55:12.049Z,100155.33
2018-11-10T12:57:41.754Z,100151.14
2018-11-10T13:00:12.072Z,100153.02
2018-11-10T13:02:41.067Z,100153.85
2018-11-10T13:05:11.156Z,100158.20
2018-11-10T13:07:41.154Z,100154.86
2018-11-10T13:10:10.934Z,100148.91
2018-11-10T13:12:40.349Z,100147.55
2018-11-10T13:15:09.714Z,100147.95
2018-11-10T13:17:39.162Z,100147.44
2018-11-10T13:20:11.443Z,100151.62
2018-11-10T13:22:40.393Z,100151.38
2018-11-10T13:25:10.355Z,100152.13
2018-11-10T13:27:39.312Z,100148.67
2018-11-10T13:30:09.871Z,100151.49
2018-11-10T13:32:38.907Z,100143.44
2018-11-10T13:35:08.867Z,100146.34
2018-11-10T13:37:37.960Z,100143.51
2018-11-10T13:40:07.775Z,100148.52
2018-11-10T13:42:36.740Z,100146.89
2018-11-10T13:45:06.484Z,100143.41
2018-11-10T13:47:35.436Z,100141.13
2018-11-10T13:50:04.472Z,100137.30
2018-11-10T13:52:33.796Z,100144.47
2018-11-10T13:55:02.429Z,100142.97
2018-11-10T13:57:31.357Z,100143.46
2018-11-10T14:00:00.376Z,100145.63
2018-11-10T14:02:29.305Z,100141.73
2018-11-10T14:04:58.254Z,100142.09
2018-11-10T14:07:27.246Z,100147.44
2018-11-10T14:09:56.165Z,100143.34
2018-11-10T14:12:25.136Z,100145.27
2018-11-10T14:14:54.063Z,100142.11
2018-11-10T14:17:23.022Z,100140.11
2018-11-10T14:19:51.946Z,100143.99
2018-11-10T14:22:20.957Z,100144.63
2018-11-10T14:24:49.909Z,100142.16
2018-11-10T14:27:18.896Z,100148.04
2018-11-10T14:29:47.844Z,100154.23
2018-11-10T14:32:16.858Z,100154.66
2018-11-10T14:34:45.823Z,100147.67
2018-11-10T14:37:14.823Z,100151.16
2018-11-10T14:39:43.814Z,100154.36
2018-11-10T14:42:12.815Z,100155.63
2018-11-10T14:44:41.775Z,100149.17
2018-11-10T14:47:10.740Z,100155.33
2018-11-10T14:49:39.653Z,100153.91
2018-11-10T14:52:08.586Z,100152.39
2018-11-10T14:54:37.525Z,100154.22
2018-11-10T14:57:06.754Z,100156.66
2018-11-10T14:59:35.712Z,100155.98
2018-11-10T15:02:04.756Z,100168.17
2018-11-10T15:04:33.701Z,100166.97
2018-11-10T15:07:02.650Z,100171.49
2018-11-10T15:09:31.599Z,100172.95
2018-11-10T15:12:00.638Z,100171.03
2018-11-10T15:14:29.533Z,100170.56
2018-11-10T15:16:58.464Z,100170.81
2018-11-10T15:19:27.483Z,100170.20
2018-11-10T15:21:56.407Z,100169.77
2018-11-10T15:24:25.390Z,100174.55
2018-11-10T15:26:54.323Z,100172.42
2018-11-10T15:29:23.282Z,100183.78
2018-11-10T15:31:52.832Z,100175.11
2018-11-10T15:34:21.784Z,100177.86
2018-11-10T15:36:50.802Z,100181.91
2018-11-10T15:39:19.730Z,100175.88
2018-11-10T15:41:48.738Z,100178.25
2018-11-10T15:44:17.682Z,100180.13
2018-11-10T15:46:46.675Z,100179.95
2018-11-10T15:49:15.624Z,100188.70
2018-11-10T15:51:44.565Z,100189.72
2018-11-10T15:54:13.499Z,100193.25
2018-11-10T15:56:42.504Z,100189.03
2018-11-10T15:59:11.483Z,100185.48
2018-11-10T16:01:40.451Z,100191.34
2018-11-10T16:04:09.463Z,100192.02
2018-11-10T16:06:38.379Z,100191.01
2018-11-10T16:09:10.260Z,100195.34
2018-11-10T16:11:39.323Z,100194.33
2018-11-10T16:14:08.395Z,100197.68
2018-11-10T16:16:37.559Z,100196.84
2018-11-10T16:19:06.695Z,100199.00
2018-11-10T16:21:35.652Z,100198.34
2018-11-10T16:24:04.603Z,100192.95
2018-11-10T16:26:33.552Z,100196.80
2018-11-10T16:29:02.504Z,100196.62
2018-11-10T16:31:31.484Z,100198.94
2018-11-10T16:34:00.449Z,100203.30
2018-11-10T16:36:29.394Z,100206.30
2018-11-10T16:38:58.364Z,100202.91
2018-11-10T16:41:27.382Z,100210.61
2018-11-10T16:43:56.347Z,100208.89
2018-11-10T16:46:25.299Z,100214.88
2018-11-10T16:48:54.315Z,100212.55
2018-11-10T16:51:23.268Z,100212.20
2018-11-10T16:53:52.222Z,100211.55
2018-11-10T16:56:21.171Z,100213.38
2018-11-10T16:58:50.359Z,100215.88
2018-11-10T17:01:19.314Z,100207.52
2018-11-10T17:03:48.396Z,100209.52
2018-11-10T17:06:17.345Z,100210.13
2018-11-10T17:08:46.344Z,100212.42
2018-11-10T17:11:15.289Z,100215.10
2018-11-10T17:13:44.232Z,100212.38
2018-11-10T17:16:13.171Z,100217.05
2018-11-10T17:18:42.126Z,100219.04
2018-11-10T17:21:11.094Z,100220.72
2018-11-10T17:23:40.080Z,100222.37
2018-11-10T17:26:09.076Z,100219.52
2018-11-10T17:28:38.039Z,100212.78
2018-11-10T17:31:06.988Z,100221.81
2018-11-10T17:33:35.951Z,100221.08
2018-11-10T17:36:04.901Z,100223.55
2018-11-10T17:38:33.869Z,100222.56
2018-11-10T17:41:02.785Z,100223.20
2018-11-10T17:43:31.787Z,100228.70
2018-11-10T17:46:00.797Z,100232.53
2018-11-10T17:48:29.806Z,100234.01
2018-11-10T17:50:58.723Z,100236.05
2018-11-10T17:53:27.688Z,100230.59
2018-11-10T17:55:56.634Z,100232.95
2018-11-10T17:58:26.666Z,100232.38
2018-11-10T18:00:55.706Z,100225.05
2018-11-10T18:03:24.692Z,100223.89
2018-11-10T18:05:53.724Z,100219.27
2018-11-10T18:08:22.665Z,100214.61
2018-11-10T18:10:51.671Z,100215.94
2018-11-10T18:13:20.626Z,100217.20
2018-11-10T18:15:49.585Z,100220.19
2018-11-10T18:18:18.599Z,100221.13
2018-11-10T18:20:47.580Z,100221.39
2018-11-10T18:23:16.578Z,100221.38
2018-11-10T18:25:45.523Z,100219.98
2018-11-10T18:28:14.532Z,100225.34
2018-11-10T18:30:43.503Z,100230.34
2018-11-10T18:33:14.076Z,100233.64
2018-11-10T18:35:43.155Z,100233.58
2018-11-10T18:38:12.142Z,100237.36
2018-11-10T18:40:41.122Z,100234.98
2018-11-10T18:43:10.038Z,100238.84
2018-11-10T18:45:39.024Z,100239.34
2018-11-10T18:48:07.966Z,100237.08
2018-11-10T18:50:36.921Z,100245.04
2018-11-10T18:53:06.038Z,100245.04
2018-11-10T18:55:35.003Z,100246.06
2018-11-10T18:58:04.032Z,100251.73
2018-11-10T19:00:33.710Z,100242.83
2018-11-10T19:03:02.711Z,100249.38
2018-11-10T19:05:31.658Z,100253.39
2018-11-10T19:08:00.634Z,100253.19
2018-11-10T19:10:29.565Z,100258.33
2018-11-10T19:12:58.574Z,100258.33
2018-11-10T19:15:27.517Z,100257.27
2018-11-10T19:17:56.484Z,100260.36
2018-11-10T19:20:25.430Z,100259.38
2018-11-10T19:22:54.564Z,100265.72
2018-11-10T19:25:23.536Z,100261.84
2018-11-10T19:27:52.474Z,100261.64
2018-11-10T19:30:21.765Z,100264.92
2018-11-10T19:32:51.299Z,100267.59
2018-11-10T19:35:20.610Z,100264.89
2018-11-10T19:37:49.567Z,100268.83
2018-11-10T19:40:18.536Z,100270.80
2018-11-10T19:42:47.839Z,100264.44
2018-11-10T19:45:16.853Z,100268.73
2018-11-10T19:47:46.571Z,100267.53
2018-11-10T19:50:15.979Z,100280.34
2018-11-10T19:52:45.047Z,100278.47
2018-11-10T19:55:15.689Z,100282.91
2018-11-10T19:57:44.716Z,100274.50
2018-11-10T20:00:20.394Z,100281.11
2018-11-10T20:02:49.390Z,100283.67
2018-11-10T20:05:18.675Z,100281.77
2018-11-10T20:07:47.768Z,100281.58
2018-11-10T20:10:16.790Z,100282.80
2018-11-10T20:12:45.962Z,100274.08
2018-11-10T20:15:15.746Z,100285.05
2018-11-10T20:17:45.071Z,100284.42
2018-11-10T20:20:15.648Z,100288.08
2018-11-10T20:22:44.778Z,100285.19
2018-11-10T20:25:15.244Z,100288.17
2018-11-10T20:27:44.223Z,100290.35
2018-11-10T20:30:16.189Z,100294.14
2018-11-10T20:32:45.284Z,100288.66
2018-11-10T20:35:14.707Z,100283.99
2018-11-10T20:37:44.466Z,100285.14
2018-11-10T20:40:14.290Z,100295.13
2018-11-10T20:42:43.534Z,100296.69
2018-11-10T20:45:16.326Z,100295.63
2018-11-10T20:47:45.254Z,100301.18
2018-11-10T20:50:14.765Z,100295.76
2018-11-10T20:52:43.746Z,100297.88
2018-11-10T20:55:13.243Z,100299.62
2018-11-10T20:57:42.236Z,100296.59
2018-11-10T21:00:14.610Z,100304.06
2018-11-10T21:02:43.931Z,100303.13
2018-11-10T21:05:13.431Z,100306.07
2018-11-10T21:07:42.399Z,100306.06
2018-11-10T21:10:15.412Z,100303.82
2018-11-10T21:12:45.172Z,100313.16
2018-11-10T21:15:14.612Z,100316.09
2018-11-10T21:17:43.635Z,100322.77
2018-11-10T21:20:13.272Z,100315.95
2018-11-10T21:22:42.437Z,100321.16
2018-11-10T21:25:13.259Z,100319.14
2018-11-10T21:27:42.550Z,100323.82
2018-11-10T21:30:13.021Z,100325.09
2018-11-10T21:32:42.310Z,100322.69
2018-11-10T21:35:11.480Z,100323.66
2018-11-10T21:37:40.331Z,100322.69
2018-11-10T21:40:12.192Z,100323.11
2018-11-10T21:42:41.516Z,100328.58
2018-11-10T21:45:11.383Z,100323.38
2018-11-10T21:47:40.697Z,100324.00
2018-11-10T21:50:12.350Z,100325.13
2018-11-10T21:52:42.024Z,100322.66
2018-11-10T21:55:12.562Z,100331.51
2018-11-10T21:57:42.003Z,100332.97
2018-11-10T22:00:13.642Z,100331.45
2018-11-10T22:02:43.336Z,100332.32
2018-11-10T22:05:12.490Z,100332.32
2018-11-10T22:07:41.430Z,100331.61
2018-11-10T22:10:12.587Z,100333.23
2018-11-10T22:12:42.645Z,100335.18
2018-11-10T22:15:14.265Z,100341.98
2018-11-10T22:17:44.062Z,100335.80
2018-11-10T22:20:14.221Z,100339.56
2018-11-10T22:22:43.189Z,100344.55
2018-11-10T22:25:12.928Z,100343.27
2018-11-10T22:27:43.070Z,100343.03
2018-11-10T22:30:14.530Z,100345.22
2018-11-10T22:32:44.181Z,100343.52
2018-11-10T22:35:13.210Z,100347.62
2018-11-10T22:37:42.186Z,100343.03
2018-11-10T22:40:12.639Z,100350.06
2018-11-10T22:42:41.957Z,100346.48
2018-11-10T22:45:12.470Z,100344.91
2018-11-10T22:47:42.099Z,100348.66
2018-11-10T22:50:14.546Z,100348.17
2018-11-10T22:52:43.970Z,100349.94
2018-11-10T22:55:12.903Z,100359.73
2018-11-10T22:57:42.094Z,100357.55
2018-11-10T23:00:16.915Z,100361.75
2018-11-10T23:02:48.549Z,100356.70
2018-11-10T23:05:18.051Z,100351.63
2018-11-10T23:07:47.006Z,100351.88
2018-11-10T23:10:16.481Z,100358.78
2018-11-10T23:12:46.488Z,100347.27
2018-11-10T23:15:15.502Z,100346.19
2018-11-10T23:17:44.466Z,100347.14
2018-11-10T23:20:14.642Z,100350.19
2018-11-10T23:22:43.664Z,100358.12
2018-11-10T23:25:13.888Z,100360.17
2018-11-10T23:27:42.879Z,100357.76
2018-11-10T23:30:16.106Z,100359.45
2018-11-10T23:32:45.106Z,100355.83
2018-11-10T23:35:14.148Z,100362.31
2018-11-10T23:37:43.170Z,100369.16
2018-11-10T23:40:13.712Z,100362.02
2018-11-10T23:42:43.023Z,100363.88
2018-11-10T23:45:12.501Z,100361.47
2018-11-10T23:47:41.473Z,100368.12
2018-11-10T23:50:15.419Z,100369.33
2018-11-10T23:52:44.398Z,100371.04
2018-11-10T23:55:14.277Z,100368.86
2018-11-10T23:57:43.223Z,100370.68
